createdAt,value
2023-03-29T00:00:14.626Z,71.03
2023-03-29T00:01:35.462Z,71.14
2023-03-29T00:02:14.452Z,70.45
2023-03-29T00:03:14.497Z,70.31
2023-03-29T00:04:14.449Z,68.87
2023-03-29T00:05:14.339Z,69.79
2023-03-29T00:06:14.309Z,68.98
2023-03-29T00:07:14.292Z,70.21
2023-03-29T00:08:14.285Z,72.06
2023-03-29T00:09:14.222Z,72.06
2023-03-29T00:10:14.195Z,73.19
2023-03-29T00:11:14.167Z,70.00
2023-03-29T00:12:14.133Z,67.94
2023-03-29T00:13:14.105Z,70.21
2023-03-29T00:14:14.074Z,70.72
2023-03-29T00:15:14.046Z,70.21
2023-03-29T00:16:14.091Z,70.21
2023-03-29T00:17:14.007Z,69.38
2023-03-29T00:18:13.958Z,70.18
2023-03-29T00:19:13.934Z,69.25
2023-03-29T00:20:13.900Z,68.32
2023-03-29T00:21:13.870Z,69.35
2023-03-29T00:22:13.839Z,69.66
2023-03-29T00:23:13.816Z,70.00
2023-03-29T00:24:13.781Z,69.90
2023-03-29T00:25:13.751Z,70.83
2023-03-29T00:26:13.726Z,71.75
2023-03-29T00:27:13.692Z,72.06
2023-03-29T00:28:13.663Z,72.16
2023-03-29T00:29:13.632Z,71.34
2023-03-29T00:30:13.626Z,71.55
2023-03-29T00:31:13.594Z,72.88
2023-03-29T00:32:13.546Z,72.61
2023-03-29T00:33:13.639Z,71.48
2023-03-29T00:34:13.516Z,73.74
2023-03-29T00:35:13.464Z,71.58
2023-03-29T00:36:13.428Z,70.24
2023-03-29T00:37:13.399Z,69.49
2023-03-29T00:38:13.370Z,69.38
2023-03-29T00:39:13.362Z,69.28
2023-03-29T00:40:13.315Z,68.56
2023-03-29T00:41:13.279Z,66.71
2023-03-29T00:42:13.270Z,66.91
2023-03-29T00:43:13.221Z,66.88
2023-03-29T00:44:13.189Z,66.06
2023-03-29T00:45:13.164Z,66.06
2023-03-29T00:46:13.179Z,65.31
2023-03-29T00:47:13.102Z,65.55
2023-03-29T00:48:13.128Z,66.54
2023-03-29T00:49:13.066Z,65.55
2023-03-29T00:50:13.020Z,65.83
2023-03-29T00:51:12.987Z,65.41
2023-03-29T00:52:12.960Z,65.92
2023-03-29T00:53:12.928Z,65.52
2023-03-29T00:54:12.897Z,66.03
2023-03-29T00:55:12.870Z,65.20
2023-03-29T00:56:12.845Z,65.00
2023-03-29T00:57:12.823Z,65.59
2023-03-29T00:58:12.779Z,65.62
2023-03-29T00:59:12.749Z,65.83
2023-03-29T01:00:12.727Z,65.11
2023-03-29T01:01:12.695Z,65.41
2023-03-29T01:02:12.780Z,66.03
2023-03-29T01:03:12.697Z,65.92
2023-03-29T01:04:12.605Z,67.26
2023-03-29T01:05:12.597Z,66.64
2023-03-29T01:06:12.552Z,65.92
2023-03-29T01:07:12.562Z,66.24
2023-03-29T01:08:12.491Z,65.72
2023-03-29T01:09:12.472Z,64.48
2023-03-29T01:10:12.436Z,64.18
2023-03-29T01:11:12.401Z,64.46
2023-03-29T01:12:12.375Z,64.76
2023-03-29T01:13:12.342Z,64.46
2023-03-29T01:14:12.318Z,64.46
2023-03-29T01:15:12.285Z,63.94
2023-03-29T01:16:12.349Z,63.94
2023-03-29T01:17:12.227Z,62.30
2023-03-29T01:18:12.235Z,62.19
2023-03-29T01:19:12.166Z,62.19
2023-03-29T01:20:12.138Z,63.02
2023-03-29T01:21:12.129Z,61.44
2023-03-29T01:22:12.080Z,61.35
2023-03-29T01:23:12.052Z,61.14
2023-03-29T01:24:12.026Z,61.99
2023-03-29T01:25:11.995Z,62.27
2023-03-29T01:26:11.985Z,61.76
2023-03-29T01:27:11.932Z,61.35
2023-03-29T01:28:11.905Z,62.68
2023-03-29T01:29:11.874Z,61.86
2023-03-29T01:30:11.847Z,62.48
2023-03-29T01:31:11.815Z,61.65
2023-03-29T01:32:11.784Z,61.76
2023-03-29T01:33:11.757Z,62.19
2023-03-29T01:34:11.728Z,62.19
2023-03-29T01:35:11.698Z,61.68
2023-03-29T01:36:11.727Z,60.35
2023-03-29T01:37:11.665Z,61.79
2023-03-29T01:38:11.643Z,62.09
2023-03-29T01:39:11.584Z,61.86
2023-03-29T01:40:11.568Z,60.52
2023-03-29T01:41:11.524Z,61.24
2023-03-29T01:42:11.493Z,62.16
2023-03-29T01:43:11.469Z,62.92
2023-03-29T01:44:11.434Z,63.94
2023-03-29T01:45:11.405Z,64.15
2023-03-29T01:46:11.412Z,63.84
2023-03-29T01:47:11.366Z,64.97
2023-03-29T01:48:11.317Z,64.87
2023-03-29T01:49:11.321Z,64.76
2023-03-29T01:50:11.260Z,66.10
2023-03-29T01:51:11.230Z,67.23
2023-03-29T01:52:11.201Z,67.57
2023-03-29T01:53:11.210Z,66.54
2023-03-29T01:54:11.143Z,67.36
2023-03-29T01:55:11.115Z,67.78
2023-03-29T01:56:11.084Z,67.09
2023-03-29T01:57:11.084Z,66.34
2023-03-29T01:58:11.033Z,67.06
2023-03-29T01:59:10.997Z,68.08
2023-03-29T02:00:10.970Z,67.47
2023-03-29T02:01:10.982Z,67.78
2023-03-29T02:02:10.928Z,67.30
2023-03-29T02:03:10.972Z,66.88
2023-03-29T02:04:10.850Z,66.88
2023-03-29T02:05:10.825Z,66.78
2023-03-29T02:06:10.791Z,67.30
2023-03-29T02:07:10.765Z,68.12
2023-03-29T02:08:10.736Z,67.78
2023-03-29T02:09:10.728Z,67.91
2023-03-29T02:10:10.677Z,67.47
2023-03-29T02:11:10.651Z,66.85
2023-03-29T02:12:10.620Z,67.30
2023-03-29T02:13:10.589Z,67.71
2023-03-29T02:14:10.563Z,69.56
2023-03-29T02:15:10.531Z,68.43
2023-03-29T02:16:10.535Z,70.18
2023-03-29T02:17:10.471Z,67.91
2023-03-29T02:18:10.479Z,68.02
2023-03-29T02:19:10.412Z,68.74
2023-03-29T02:20:10.386Z,67.81
2023-03-29T02:21:10.353Z,68.74
2023-03-29T02:22:10.337Z,68.84
2023-03-29T02:23:10.301Z,69.56
2023-03-29T02:24:10.267Z,68.84
2023-03-29T02:25:10.290Z,69.87
2023-03-29T02:26:10.213Z,68.53
2023-03-29T02:27:10.179Z,68.94
2023-03-29T02:28:10.149Z,68.94
2023-03-29T02:29:10.121Z,68.46
2023-03-29T02:30:10.094Z,69.04
2023-03-29T02:31:10.080Z,68.77
2023-03-29T02:32:10.042Z,68.35
2023-03-29T02:33:10.081Z,69.59
2023-03-29T02:34:09.980Z,69.04
2023-03-29T02:35:09.948Z,68.66
2023-03-29T02:36:09.957Z,69.25
2023-03-29T02:37:09.886Z,69.18
2023-03-29T02:38:09.865Z,70.10
2023-03-29T02:39:09.859Z,70.31
2023-03-29T02:40:09.798Z,70.21
2023-03-29T02:41:09.804Z,68.66
2023-03-29T02:42:09.743Z,68.05
2023-03-29T02:43:09.715Z,68.74
2023-03-29T02:44:09.684Z,68.02
2023-03-29T02:45:09.652Z,68.02
2023-03-29T02:46:09.650Z,70.28
2023-03-29T02:47:09.598Z,68.53
2023-03-29T02:48:09.634Z,68.74
2023-03-29T02:49:09.542Z,68.56
2023-03-29T02:50:09.512Z,69.15
2023-03-29T02:51:09.489Z,68.32
2023-03-29T02:52:09.455Z,67.81
2023-03-29T02:53:09.423Z,68.53
2023-03-29T02:54:09.398Z,68.22
2023-03-29T02:55:09.370Z,70.72
2023-03-29T02:56:09.338Z,70.28
2023-03-29T02:57:09.410Z,68.98
2023-03-29T02:58:09.283Z,68.84
2023-03-29T02:59:09.256Z,67.50
2023-03-29T03:00:09.230Z,67.84
2023-03-29T03:01:09.221Z,67.60
2023-03-29T03:02:09.234Z,69.76
2023-03-29T03:03:09.318Z,70.59
2023-03-29T03:04:09.184Z,70.07
2023-03-29T03:05:09.089Z,70.00
2023-03-29T03:06:09.051Z,69.70
2023-03-29T03:07:09.018Z,69.35
2023-03-29T03:08:08.993Z,68.98
2023-03-29T03:09:08.963Z,67.84
2023-03-29T03:10:08.940Z,67.33
2023-03-29T03:11:08.904Z,68.05
2023-03-29T03:12:08.878Z,68.12
2023-03-29T03:13:08.865Z,68.63
2023-03-29T03:14:08.824Z,68.84
2023-03-29T03:15:08.811Z,69.46
2023-03-29T03:16:08.829Z,69.04
2023-03-29T03:17:08.729Z,69.46
2023-03-29T03:18:08.778Z,69.97
2023-03-29T03:19:08.669Z,70.18
2023-03-29T03:20:08.647Z,70.59
2023-03-29T03:21:08.629Z,70.48
2023-03-29T03:22:08.583Z,70.00
2023-03-29T03:23:08.552Z,70.10
2023-03-29T03:24:08.528Z,70.72
2023-03-29T03:25:08.500Z,71.44
2023-03-29T03:26:08.469Z,71.24
2023-03-29T03:27:08.432Z,70.72
2023-03-29T03:28:08.403Z,69.90
2023-03-29T03:29:08.392Z,70.52
2023-03-29T03:30:08.350Z,69.90
2023-03-29T03:31:08.381Z,70.00
2023-03-29T03:32:08.345Z,70.31
2023-03-29T03:33:08.255Z,70.93
2023-03-29T03:34:08.228Z,72.16
2023-03-29T03:35:08.199Z,71.14
2023-03-29T03:36:08.222Z,70.10
2023-03-29T03:37:08.153Z,70.72
2023-03-29T03:38:08.110Z,70.21
2023-03-29T03:39:08.080Z,70.00
2023-03-29T03:40:08.068Z,69.97
2023-03-29T03:41:08.023Z,69.97
2023-03-29T03:42:08.585Z,70.28
2023-03-29T03:43:07.966Z,70.18
2023-03-29T03:44:07.935Z,70.48
2023-03-29T03:45:07.925Z,70.10
2023-03-29T03:46:07.956Z,69.87
2023-03-29T03:47:07.862Z,70.21
2023-03-29T03:48:07.853Z,70.42
2023-03-29T03:49:07.816Z,70.00
2023-03-29T03:50:07.765Z,70.83
2023-03-29T03:51:07.747Z,70.72
2023-03-29T03:52:07.711Z,70.72
2023-03-29T03:53:07.686Z,70.69
2023-03-29T03:54:07.664Z,71.44
2023-03-29T03:55:07.613Z,71.24
2023-03-29T03:56:07.584Z,71.24
2023-03-29T03:57:07.592Z,73.85
2023-03-29T03:58:07.530Z,72.41
2023-03-29T03:59:07.512Z,71.48
2023-03-29T04:00:07.471Z,72.41
2023-03-29T04:01:07.456Z,71.89
2023-03-29T04:02:07.464Z,72.20
2023-03-29T04:03:07.604Z,70.65
2023-03-29T04:04:07.406Z,69.93
2023-03-29T04:05:07.323Z,70.76
2023-03-29T04:06:07.310Z,70.14
2023-03-29T04:07:07.262Z,70.42
2023-03-29T04:08:07.233Z,71.48
2023-03-29T04:09:07.202Z,70.04
2023-03-29T04:10:07.176Z,70.31
2023-03-29T04:11:07.145Z,71.86
2023-03-29T04:12:07.115Z,71.78
2023-03-29T04:13:07.089Z,72.58
2023-03-29T04:14:07.062Z,71.89
2023-03-29T04:15:07.036Z,70.04
2023-03-29T04:16:07.046Z,70.55
2023-03-29T04:17:06.987Z,71.65
2023-03-29T04:18:07.032Z,70.55
2023-03-29T04:19:06.909Z,71.48
2023-03-29T04:20:06.896Z,71.75
2023-03-29T04:21:06.858Z,71.78
2023-03-29T04:22:06.828Z,71.14
2023-03-29T04:23:06.797Z,71.44
2023-03-29T04:24:06.783Z,70.83
2023-03-29T04:25:06.734Z,71.44
2023-03-29T04:26:06.706Z,70.72
2023-03-29T04:27:06.680Z,70.72
2023-03-29T04:28:06.650Z,70.90
2023-03-29T04:29:06.620Z,70.69
2023-03-29T04:30:06.592Z,70.42
2023-03-29T04:31:06.581Z,69.66
2023-03-29T04:32:06.532Z,70.28
2023-03-29T04:33:06.571Z,68.84
2023-03-29T04:34:06.476Z,69.04
2023-03-29T04:35:06.472Z,67.40
2023-03-29T04:36:06.468Z,67.71
2023-03-29T04:37:06.388Z,67.81
2023-03-29T04:38:06.360Z,67.40
2023-03-29T04:39:06.336Z,66.88
2023-03-29T04:40:06.301Z,67.81
2023-03-29T04:41:06.274Z,68.22
2023-03-29T04:42:06.246Z,67.60
2023-03-29T04:43:06.214Z,67.88
2023-03-29T04:44:06.181Z,65.83
2023-03-29T04:45:06.240Z,66.03
2023-03-29T04:46:06.143Z,64.69
2023-03-29T04:47:06.117Z,63.64
2023-03-29T04:48:06.171Z,64.76
2023-03-29T04:49:06.068Z,64.25
2023-03-29T04:50:06.021Z,62.30
2023-03-29T04:51:05.984Z,62.37
2023-03-29T04:52:05.955Z,62.48
2023-03-29T04:53:05.922Z,60.21
2023-03-29T04:54:05.892Z,59.98
2023-03-29T04:55:05.879Z,58.23
2023-03-29T04:56:05.836Z,55.64
2023-03-29T04:57:05.852Z,56.77
2023-03-29T04:58:05.786Z,56.26
2023-03-29T04:59:05.755Z,53.77
2023-03-29T05:00:05.717Z,54.69
2023-03-29T05:01:05.687Z,55.30
2023-03-29T05:02:05.696Z,54.69
2023-03-29T05:03:05.667Z,55.13
2023-03-29T05:04:05.641Z,55.10
2023-03-29T05:05:05.593Z,55.13
2023-03-29T05:06:05.540Z,56.87
2023-03-29T05:07:05.511Z,57.79
2023-03-29T05:08:05.480Z,57.08
2023-03-29T05:09:05.467Z,57.70
2023-03-29T05:10:05.424Z,59.03
2023-03-29T05:11:05.393Z,57.39
2023-03-29T05:12:05.362Z,57.70
2023-03-29T05:13:05.334Z,56.43
2023-03-29T05:14:05.305Z,57.59
2023-03-29T05:15:05.274Z,56.87
2023-03-29T05:16:05.308Z,57.98
2023-03-29T05:17:05.292Z,57.18
2023-03-29T05:18:05.264Z,56.46
2023-03-29T05:19:05.162Z,56.43
2023-03-29T05:20:05.136Z,56.85
2023-03-29T05:21:05.465Z,55.82
2023-03-29T05:22:05.088Z,56.64
2023-03-29T05:23:05.042Z,57.03
2023-03-29T05:24:05.011Z,55.82
2023-03-29T05:25:04.986Z,56.30
2023-03-29T05:26:04.958Z,55.18
2023-03-29T05:27:04.935Z,55.69
2023-03-29T05:28:04.893Z,55.59
2023-03-29T05:29:04.868Z,53.85
2023-03-29T05:30:04.840Z,53.95
2023-03-29T05:31:05.153Z,53.95
2023-03-29T05:32:04.926Z,53.74
2023-03-29T05:33:04.806Z,54.87
2023-03-29T05:34:04.723Z,54.66
2023-03-29T05:35:04.699Z,54.97
2023-03-29T05:36:04.790Z,54.77
2023-03-29T05:37:04.656Z,54.15
2023-03-29T05:38:04.604Z,55.18
2023-03-29T05:39:04.574Z,56.20
2023-03-29T05:40:06.118Z,55.18
2023-03-29T05:41:04.622Z,54.97
2023-03-29T05:42:04.517Z,55.08
2023-03-29T05:43:04.532Z,53.64
2023-03-29T05:44:04.440Z,54.77
2023-03-29T05:45:04.401Z,53.95
2023-03-29T05:46:04.399Z,54.66
2023-03-29T05:47:04.343Z,53.85
2023-03-29T05:48:04.365Z,55.08
2023-03-29T05:49:04.290Z,56.34
2023-03-29T05:50:04.276Z,54.49
2023-03-29T05:51:04.370Z,54.25
2023-03-29T05:52:04.203Z,56.00
2023-03-29T05:53:04.185Z,54.87
2023-03-29T05:54:04.136Z,54.77
2023-03-29T05:55:04.122Z,54.49
2023-03-29T05:56:04.092Z,55.79
2023-03-29T05:57:04.096Z,55.21
2023-03-29T05:58:04.025Z,54.49
2023-03-29T05:59:03.993Z,55.10
2023-03-29T06:00:03.966Z,56.20
2023-03-29T06:01:04.096Z,56.92
2023-03-29T06:02:03.962Z,55.82
2023-03-29T06:03:17.642Z,56.82
2023-03-29T06:04:04.117Z,58.39
2023-03-29T06:05:03.976Z,57.56
2023-03-29T06:06:03.883Z,57.36
2023-03-29T06:07:03.770Z,57.05
2023-03-29T06:08:03.733Z,57.33
2023-03-29T06:09:03.722Z,57.26
2023-03-29T06:10:03.672Z,57.67
2023-03-29T06:11:05.048Z,57.98
2023-03-29T06:12:03.618Z,57.87
2023-03-29T06:13:03.595Z,57.87
2023-03-29T06:14:03.575Z,58.28
2023-03-29T06:15:03.531Z,58.18
2023-03-29T06:16:03.509Z,58.07
2023-03-29T06:17:03.497Z,58.05
2023-03-29T06:18:03.522Z,57.64
2023-03-29T06:19:03.416Z,58.05
2023-03-29T06:20:03.387Z,57.43
2023-03-29T06:21:03.681Z,56.41
2023-03-29T06:22:03.329Z,57.10
2023-03-29T06:23:03.302Z,57.41
2023-03-29T06:24:03.279Z,57.51
2023-03-29T06:25:03.265Z,57.31
2023-03-29T06:26:03.214Z,57.10
2023-03-29T06:27:03.198Z,57.07
2023-03-29T06:28:03.155Z,56.67
2023-03-29T06:29:03.129Z,55.64
2023-03-29T06:30:03.099Z,57.59
2023-03-29T06:31:04.299Z,56.15
2023-03-29T06:32:03.042Z,57.89
2023-03-29T06:33:03.066Z,56.97
2023-03-29T06:34:02.988Z,56.87
2023-03-29T06:35:02.969Z,56.97
2023-03-29T06:36:02.966Z,56.87
2023-03-29T06:37:02.902Z,56.67
2023-03-29T06:38:02.884Z,57.18
2023-03-29T06:39:02.846Z,56.15
2023-03-29T06:40:02.819Z,55.64
2023-03-29T06:41:03.021Z,56.64
2023-03-29T06:42:13.068Z,55.13
2023-03-29T06:43:02.781Z,55.51
2023-03-29T06:44:02.702Z,54.69
2023-03-29T06:45:02.677Z,55.00
2023-03-29T06:46:02.686Z,53.56
2023-03-29T06:47:02.621Z,54.69
2023-03-29T06:48:02.607Z,54.49
2023-03-29T06:49:02.561Z,53.95
2023-03-29T06:50:02.535Z,52.21
2023-03-29T06:51:02.714Z,54.36
2023-03-29T06:52:02.481Z,54.38
2023-03-29T06:53:02.452Z,54.46
2023-03-29T06:54:02.421Z,53.75
2023-03-29T06:55:02.398Z,55.79
2023-03-29T06:56:02.362Z,54.67
2023-03-29T06:57:02.420Z,54.87
2023-03-29T06:58:02.919Z,54.67
2023-03-29T06:59:02.283Z,54.57
2023-03-29T07:00:02.248Z,54.36
2023-03-29T07:01:02.580Z,55.49
2023-03-29T07:02:02.232Z,53.85
2023-03-29T07:03:02.192Z,54.36
2023-03-29T07:04:02.184Z,53.85
2023-03-29T07:05:02.114Z,54.67
2023-03-29T07:06:02.087Z,54.87
2023-03-29T07:07:02.052Z,54.05
2023-03-29T07:08:02.025Z,54.05
2023-03-29T07:09:02.007Z,53.64
2023-03-29T07:10:01.964Z,53.75
2023-03-29T07:11:02.222Z,53.62
2023-03-29T07:12:01.917Z,53.62
2023-03-29T07:13:01.908Z,54.03
2023-03-29T07:14:01.869Z,56.89
2023-03-29T07:15:01.828Z,57.92
2023-03-29T07:16:01.814Z,59.76
2023-03-29T07:17:01.787Z,61.43
2023-03-29T07:18:01.764Z,62.37
2023-03-29T07:19:01.715Z,62.99
2023-03-29T07:20:01.687Z,64.62
2023-03-29T07:21:01.942Z,65.17
2023-03-29T07:22:01.635Z,65.27
2023-03-29T07:23:01.729Z,65.27
2023-03-29T07:24:01.579Z,64.76
2023-03-29T07:25:01.548Z,65.81
2023-03-29T07:26:01.527Z,65.37
2023-03-29T07:27:04.401Z,65.78
2023-03-29T07:28:01.495Z,66.09
2023-03-29T07:29:01.748Z,66.19
2023-03-29T07:30:01.426Z,65.27
2023-03-29T07:31:02.032Z,66.22
2023-03-29T07:32:01.348Z,66.63
2023-03-29T07:33:01.452Z,66.12
2023-03-29T07:34:01.299Z,67.14
2023-03-29T07:35:01.297Z,66.63
2023-03-29T07:36:01.289Z,66.02
2023-03-29T07:37:01.219Z,66.43
2023-03-29T07:38:01.183Z,66.43
2023-03-29T07:39:01.163Z,65.54
2023-03-29T07:40:01.128Z,66.43
2023-03-29T07:41:01.350Z,65.20
2023-03-29T07:42:01.072Z,65.51
2023-03-29T07:43:01.046Z,65.10
2023-03-29T07:44:03.294Z,65.33
2023-03-29T07:45:01.010Z,65.61
2023-03-29T07:46:01.000Z,65.51
2023-03-29T07:47:00.946Z,65.68
2023-03-29T07:48:00.932Z,64.97
2023-03-29T07:49:00.877Z,63.73
2023-03-29T07:50:00.883Z,63.50
2023-03-29T07:51:01.005Z,64.32
2023-03-29T07:52:00.794Z,63.70
2023-03-29T07:53:00.772Z,65.14
2023-03-29T07:54:00.757Z,64.12
2023-03-29T07:55:00.712Z,64.53
2023-03-29T07:56:00.688Z,64.94
2023-03-29T07:57:00.737Z,64.86
2023-03-29T07:58:02.632Z,66.06
2023-03-29T07:59:00.608Z,65.04
2023-03-29T08:00:00.590Z,65.34
2023-03-29T08:01:00.984Z,64.83
2023-03-29T08:02:00.519Z,65.24
2023-03-29T08:03:00.522Z,65.65
2023-03-29T08:04:00.645Z,65.24
2023-03-29T08:05:00.481Z,66.06
2023-03-29T08:06:00.407Z,66.67
2023-03-29T08:07:00.392Z,65.42
2023-03-29T08:08:00.355Z,65.42
2023-03-29T08:09:00.331Z,66.37
2023-03-29T08:10:00.299Z,65.75
2023-03-29T08:11:00.471Z,67.49
2023-03-29T08:12:00.255Z,65.86
2023-03-29T08:13:00.215Z,65.65
2023-03-29T08:14:00.194Z,65.55
2023-03-29T08:15:00.171Z,65.55
2023-03-29T08:16:00.153Z,65.24
2023-03-29T08:17:00.191Z,65.04
2023-03-29T08:18:00.178Z,65.14
2023-03-29T08:19:00.057Z,65.21
2023-03-29T08:20:00.042Z,65.52
2023-03-29T08:21:00.133Z,65.42
2023-03-29T08:21:59.977Z,66.85
2023-03-29T08:22:59.946Z,65.65
2023-03-29T08:23:59.924Z,65.04
2023-03-29T08:24:59.892Z,66.85
2023-03-29T08:25:59.863Z,65.11
2023-03-29T08:26:59.839Z,65.31
2023-03-29T08:27:59.819Z,66.54
2023-03-29T08:28:59.795Z,65.11
2023-03-29T08:29:59.754Z,65.31
2023-03-29T08:31:00.069Z,65.39
2023-03-29T08:31:59.702Z,65.25
2023-03-29T08:32:59.719Z,63.72
2023-03-29T08:33:59.651Z,63.72
2023-03-29T08:34:59.622Z,65.15
2023-03-29T08:35:59.664Z,64.43
2023-03-29T08:36:59.565Z,63.51
2023-03-29T08:37:59.542Z,63.72
2023-03-29T08:38:59.518Z,64.92
2023-03-29T08:39:59.484Z,63.79
2023-03-29T08:40:59.534Z,62.33
2023-03-29T08:41:59.433Z,61.82
2023-03-29T08:42:59.418Z,64.48
2023-03-29T08:43:59.387Z,63.56
2023-03-29T08:44:59.358Z,61.69
2023-03-29T08:45:59.340Z,63.45
2023-03-29T08:46:59.431Z,62.20
2023-03-29T08:47:59.315Z,62.51
2023-03-29T08:48:59.298Z,63.15
2023-03-29T08:49:59.220Z,63.43
2023-03-29T08:50:59.281Z,61.99
2023-03-29T08:51:59.160Z,61.28
2023-03-29T08:52:59.135Z,62.51
2023-03-29T08:53:59.109Z,62.07
2023-03-29T08:54:59.084Z,61.25
2023-03-29T08:55:59.055Z,62.07
2023-03-29T08:56:59.076Z,60.30
2023-03-29T08:57:59.002Z,59.49
2023-03-29T08:58:58.976Z,59.69
2023-03-29T08:59:58.948Z,59.80
2023-03-29T09:00:58.933Z,57.62
2023-03-29T09:01:58.953Z,57.93
2023-03-29T09:02:58.933Z,58.85
2023-03-29T09:03:58.954Z,58.23
2023-03-29T09:04:58.882Z,56.81
2023-03-29T09:05:58.793Z,56.40
2023-03-29T09:06:58.766Z,57.19
2023-03-29T09:07:58.739Z,57.17
2023-03-29T09:08:58.711Z,57.37
2023-03-29T09:09:58.689Z,57.95
2023-03-29T09:10:58.659Z,56.32
2023-03-29T09:11:58.638Z,56.85
2023-03-29T09:12:58.674Z,56.55
2023-03-29T09:13:58.582Z,57.26
2023-03-29T09:14:58.569Z,56.78
2023-03-29T09:15:58.589Z,57.09
2023-03-29T09:16:58.508Z,56.99
2023-03-29T09:17:58.516Z,57.37
2023-03-29T09:18:58.460Z,57.34
2023-03-29T09:19:58.428Z,56.22
2023-03-29T09:20:58.492Z,57.54
2023-03-29T09:21:58.379Z,57.54
2023-03-29T09:22:58.349Z,57.26
2023-03-29T09:23:58.323Z,56.93
2023-03-29T09:24:58.301Z,57.14
2023-03-29T09:25:58.286Z,57.31
2023-03-29T09:26:58.244Z,56.63
2023-03-29T09:27:58.219Z,57.04
2023-03-29T09:28:58.192Z,56.93
2023-03-29T09:29:58.221Z,58.18
2023-03-29T09:30:58.146Z,57.37
2023-03-29T09:31:58.170Z,57.67
2023-03-29T09:32:58.180Z,58.01
2023-03-29T09:33:58.070Z,59.16
2023-03-29T09:34:58.044Z,58.82
2023-03-29T09:35:58.047Z,59.84
2023-03-29T09:36:58.006Z,58.85
2023-03-29T09:37:57.965Z,58.34
2023-03-29T09:38:57.936Z,59.08
2023-03-29T09:39:57.915Z,59.49
2023-03-29T09:40:57.894Z,60.28
2023-03-29T09:41:57.859Z,59.59
2023-03-29T09:42:57.843Z,59.59
2023-03-29T09:43:57.807Z,59.16
2023-03-29T09:44:57.786Z,59.46
2023-03-29T09:45:57.811Z,59.97
2023-03-29T09:46:57.730Z,58.95
2023-03-29T09:47:57.781Z,59.77
2023-03-29T09:48:57.678Z,59.39
2023-03-29T09:49:57.652Z,60.21
2023-03-29T09:50:57.624Z,61.32
2023-03-29T09:51:57.604Z,59.89
2023-03-29T09:52:57.594Z,59.59
2023-03-29T09:53:57.549Z,59.69
2023-03-29T09:54:57.524Z,60.71
2023-03-29T09:55:57.499Z,59.89
2023-03-29T09:56:57.503Z,60.07
2023-03-29T09:57:57.451Z,59.66
2023-03-29T09:58:57.420Z,59.53
2023-03-29T09:59:57.408Z,59.33
2023-03-29T10:00:57.398Z,59.43
2023-03-29T10:01:57.345Z,60.14
2023-03-29T10:02:57.401Z,59.03
2023-03-29T10:03:57.331Z,59.43
2023-03-29T10:04:57.264Z,58.69
2023-03-29T10:05:57.240Z,57.95
2023-03-29T10:06:57.217Z,57.34
2023-03-29T10:07:57.201Z,57.21
2023-03-29T10:08:57.190Z,58.67
2023-03-29T10:09:57.140Z,58.76
2023-03-29T10:10:57.111Z,58.36
2023-03-29T10:11:57.091Z,59.55
2023-03-29T10:12:57.060Z,59.35
2023-03-29T10:13:57.038Z,59.07
2023-03-29T10:14:57.023Z,60.57
2023-03-29T10:15:56.983Z,59.05
2023-03-29T10:16:57.094Z,58.74
2023-03-29T10:17:56.965Z,59.42
2023-03-29T10:18:56.908Z,56.88
2023-03-29T10:19:56.895Z,56.95
2023-03-29T10:20:56.857Z,57.26
2023-03-29T10:21:56.833Z,57.97
2023-03-29T10:22:56.806Z,57.36
2023-03-29T10:23:56.785Z,59.98
2023-03-29T10:24:56.778Z,58.35
2023-03-29T10:25:56.734Z,59.64
2023-03-29T10:26:56.709Z,56.70
2023-03-29T10:27:56.686Z,56.47
2023-03-29T10:28:56.661Z,57.05
2023-03-29T10:29:56.635Z,55.32
2023-03-29T10:30:56.614Z,56.98
2023-03-29T10:31:56.673Z,56.13
2023-03-29T10:32:56.664Z,55.83
2023-03-29T10:33:56.534Z,55.30
2023-03-29T10:34:56.509Z,55.58
2023-03-29T10:35:56.520Z,54.16
2023-03-29T10:36:56.474Z,54.44
2023-03-29T10:37:56.437Z,55.12
2023-03-29T10:38:56.412Z,52.46
2023-03-29T10:39:56.388Z,54.28
2023-03-29T10:40:56.380Z,53.07
2023-03-29T10:41:56.345Z,52.26
2023-03-29T10:42:56.314Z,52.69
2023-03-29T10:43:56.294Z,52.18
2023-03-29T10:44:56.264Z,51.90
2023-03-29T10:45:56.356Z,52.81
2023-03-29T10:46:56.223Z,53.93
2023-03-29T10:47:56.308Z,54.05
2023-03-29T10:48:56.169Z,56.05
2023-03-29T10:49:57.191Z,53.42
2023-03-29T10:50:56.132Z,53.27
2023-03-29T10:51:56.106Z,53.07
2023-03-29T10:52:56.074Z,51.65
2023-03-29T10:53:56.050Z,51.95
2023-03-29T10:54:56.040Z,51.75
2023-03-29T10:55:56.016Z,50.86
2023-03-29T10:56:56.067Z,52.99
2023-03-29T10:57:55.958Z,51.72
2023-03-29T10:58:55.931Z,52.97
2023-03-29T10:59:55.906Z,51.98
2023-03-29T11:00:55.881Z,52.99
2023-03-29T11:01:55.934Z,51.87
2023-03-29T11:02:55.954Z,53.17
2023-03-29T11:03:55.971Z,52.15
2023-03-29T11:04:55.785Z,52.97
2023-03-29T11:05:55.779Z,53.39
2023-03-29T11:06:55.737Z,54.11
2023-03-29T11:07:55.715Z,55.25
2023-03-29T11:08:55.694Z,54.44
2023-03-29T11:09:55.711Z,54.84
2023-03-29T11:10:55.640Z,53.42
2023-03-29T11:12:08.323Z,52.38
2023-03-29T11:12:55.615Z,52.18
2023-03-29T11:13:56.991Z,51.95
2023-03-29T11:14:55.561Z,51.52
2023-03-29T11:15:55.547Z,51.62
2023-03-29T11:16:55.494Z,51.60
2023-03-29T11:17:55.517Z,48.86
2023-03-29T11:18:55.442Z,50.05
2023-03-29T11:19:55.420Z,48.15
2023-03-29T11:20:55.394Z,50.40
2023-03-29T11:21:55.373Z,52.00
2023-03-29T11:22:55.349Z,49.57
2023-03-29T11:23:55.324Z,50.48
2023-03-29T11:24:55.303Z,51.35
2023-03-29T11:25:55.278Z,47.11
2023-03-29T11:26:55.251Z,49.73
2023-03-29T11:27:55.228Z,47.31
2023-03-29T11:28:55.227Z,49.95
2023-03-29T11:29:55.179Z,47.62
2023-03-29T11:30:55.240Z,46.73
2023-03-29T11:31:55.231Z,47.42
2023-03-29T11:32:55.136Z,44.87
2023-03-29T11:33:55.084Z,47.88
2023-03-29T11:34:55.062Z,44.34
2023-03-29T11:35:55.063Z,44.44
2023-03-29T11:36:55.014Z,43.93
2023-03-29T11:37:54.988Z,44.44
2023-03-29T11:38:54.965Z,45.07
2023-03-29T11:39:54.941Z,44.76
2023-03-29T11:40:54.920Z,45.37
2023-03-29T11:41:54.895Z,43.95
2023-03-29T11:42:54.872Z,45.37
2023-03-29T11:43:55.135Z,44.87
2023-03-29T11:44:55.169Z,45.17
2023-03-29T11:45:54.797Z,47.55
2023-03-29T11:46:54.873Z,47.66
2023-03-29T11:47:54.774Z,46.83
2023-03-29T11:48:54.730Z,46.70
2023-03-29T11:49:54.698Z,47.39
2023-03-29T11:50:54.677Z,47.08
2023-03-29T11:51:54.650Z,45.29
2023-03-29T11:52:54.630Z,44.40
2023-03-29T11:53:54.607Z,45.12
2023-03-29T11:54:54.579Z,45.61
2023-03-29T11:55:54.559Z,46.84
2023-03-29T11:56:54.566Z,47.23
2023-03-29T11:57:54.507Z,47.51
2023-03-29T11:58:54.482Z,47.39
2023-03-29T11:59:54.465Z,47.28
2023-03-29T12:00:54.469Z,47.31
2023-03-29T12:01:54.426Z,47.51
2023-03-29T12:02:54.522Z,47.49
2023-03-29T12:03:54.515Z,48.17
2023-03-29T12:04:54.361Z,47.24
2023-03-29T12:05:54.316Z,48.55
2023-03-29T12:06:54.296Z,47.74
2023-03-29T12:07:54.263Z,47.16
2023-03-29T12:08:54.242Z,47.06
2023-03-29T12:09:54.219Z,48.47
2023-03-29T12:10:54.194Z,47.79
2023-03-29T12:11:54.171Z,48.90
2023-03-29T12:12:54.147Z,49.21
2023-03-29T12:13:54.124Z,48.72
2023-03-29T12:14:54.101Z,48.42
2023-03-29T12:15:54.083Z,48.82
2023-03-29T12:16:54.111Z,50.62
2023-03-29T12:17:54.063Z,49.51
2023-03-29T12:18:54.006Z,49.81
2023-03-29T12:19:53.983Z,48.58
2023-03-29T12:20:53.960Z,48.58
2023-03-29T12:21:53.945Z,48.58
2023-03-29T12:22:53.914Z,48.70
2023-03-29T12:23:53.918Z,49.63
2023-03-29T12:24:53.867Z,50.06
2023-03-29T12:25:53.842Z,49.86
2023-03-29T12:26:53.823Z,50.06
2023-03-29T12:27:53.805Z,50.06
2023-03-29T12:28:53.771Z,50.87
2023-03-29T12:29:53.756Z,49.76
2023-03-29T12:30:53.729Z,50.06
2023-03-29T12:31:53.756Z,49.35
2023-03-29T12:32:53.802Z,49.43
2023-03-29T12:33:53.658Z,49.22
2023-03-29T12:34:53.635Z,48.80
2023-03-29T12:35:53.637Z,49.08
2023-03-29T12:36:53.590Z,49.18
2023-03-29T12:37:53.566Z,51.20
2023-03-29T12:38:53.541Z,48.78
2023-03-29T12:39:53.529Z,49.16
2023-03-29T12:40:53.494Z,48.55
2023-03-29T12:41:53.528Z,48.55
2023-03-29T12:42:53.454Z,50.78
2023-03-29T12:43:53.431Z,49.08
2023-03-29T12:44:53.410Z,50.39
2023-03-29T12:45:53.411Z,49.48
2023-03-29T12:46:53.357Z,50.80
2023-03-29T12:47:53.384Z,50.29
2023-03-29T12:48:53.356Z,51.00
2023-03-29T12:49:53.289Z,49.96
2023-03-29T12:50:53.281Z,49.33
2023-03-29T12:51:53.267Z,48.85